Time;durP1;ratioP1;P1;durP2;ratioP2;P2;SDS_P1;SDS_P2;PMS_P1;PMS_P2;Temp;Humidity;BMP_temperature;BMP_pressure;BME280_temperature;BME280_humidity;BME280_pressure;Samples;Min_cycle;Max_cycle;Signal;HPM_P1;HPM_P2
2022/07/12 00:01:07;;;;;;;1.60;1.30;;;15.00;99.90;;;;;;5155817;27;20043;-80
2022/07/12 00:03:33;;;;;;;2.13;1.67;;;14.90;99.90;;;;;;5137520;27;20111;-80
2022/07/12 00:05:59;;;;;;;1.83;1.50;;;14.60;99.90;;;;;;5155807;27;20487;-80
2022/07/12 00:08:25;;;;;;;1.87;1.57;;;15.00;99.90;;;;;;5137317;27;20480;-79
2022/07/12 00:10:51;;;;;;;2.47;1.40;;;15.60;99.90;;;;;;5155979;27;20047;-80
2022/07/12 00:13:17;;;;;;;2.10;1.43;;;14.80;99.90;;;;;;5155322;27;20051;-79
2022/07/12 00:15:43;;;;;;;2.27;1.50;;;14.80;99.90;;;;;;5155457;27;20043;-79
2022/07/12 00:18:10;;;;;;;1.85;1.48;;;15.70;99.90;;;;;;5155543;27;20301;-80
2022/07/12 00:20:36;;;;;;;3.03;1.55;;;15.80;99.90;;;;;;5155489;27;20098;-79
2022/07/12 00:23:02;;;;;;;2.17;1.52;;;16.00;99.90;;;;;;5155410;27;20058;-80
2022/07/12 00:25:27;;;;;;;2.47;1.37;;;15.10;99.90;;;;;;5137184;27;20046;-81
2022/07/12 00:27:53;;;;;;;2.22;1.27;;;15.20;99.90;;;;;;5155365;27;20479;-80
2022/07/12 00:30:19;;;;;;;1.70;1.33;;;15.90;99.90;;;;;;5137172;27;20088;-79
2022/07/12 00:32:44;;;;;;;1.50;1.20;;;14.80;99.90;;;;;;5155630;27;20047;-80
2022/07/12 00:35:10;;;;;;;1.83;1.30;;;14.70;99.90;;;;;;5155360;27;20050;-78
2022/07/12 00:37:36;;;;;;;2.60;1.50;;;14.90;99.90;;;;;;5155172;27;20078;-79
2022/07/12 00:40:05;;;;;;;1.80;1.33;;;15.10;99.90;;;;;;5155311;27;20047;-79
2022/07/12 00:42:32;;;;;;;2.25;1.50;;;14.80;99.90;;;;;;5155305;27;20039;-78
2022/07/12 00:44:58;;;;;;;1.50;1.20;;;14.50;99.90;;;;;;5119908;27;20057;-79
2022/07/12 00:47:37;;;;;;;1.93;1.33;;;14.50;99.90;;;;;;5155447;27;20054;-79
2022/07/12 00:50:14;;;;;;;1.90;1.30;;;14.70;99.90;;;;;;5136736;27;20035;-80
2022/07/12 00:52:41;;;;;;;1.50;1.20;;;15.20;99.90;;;;;;5137183;27;20039;-80
2022/07/12 00:55:08;;;;;;;2.05;1.40;;;14.60;99.90;;;;;;5155188;27;20035;-79
2022/07/12 00:57:35;;;;;;;1.80;1.30;;;14.60;99.90;;;;;;5136919;27;20088;-80
2022/07/12 01:00:03;;;;;;;3.70;1.40;;;14.70;99.90;;;;;;5154684;27;20433;-78
2022/07/12 01:02:29;;;;;;;2.13;1.20;;;14.50;99.90;;;;;;5136621;27;20503;-80
2022/07/12 01:04:55;;;;;;;1.93;1.43;;;14.60;99.90;;;;;;5136805;27;20039;-80
2022/07/12 01:07:23;;;;;;;3.80;1.53;;;15.20;99.90;;;;;;5155001;27;20042;-80
2022/07/12 01:09:50;;;;;;;2.20;1.63;;;13.90;99.90;;;;;;5154817;27;20055;-80
2022/07/12 01:12:16;;;;;;;2.85;1.50;;;14.40;99.90;;;;;;5154972;27;20130;-79
2022/07/12 01:14:42;;;;;;;2.10;1.60;;;14.10;99.90;;;;;;5154997;27;20125;-80
2022/07/12 01:17:08;;;;;;;2.35;1.70;;;14.30;99.90;;;;;;5154987;27;20042;-79
2022/07/12 01:19:37;;;;;;;2.00;1.43;;;15.00;99.90;;;;;;5119693;27;20482;-80
2022/07/12 01:22:08;;;;;;;2.90;1.60;;;14.40;99.90;;;;;;5155301;27;20072;-80
2022/07/12 01:24:34;;;;;;;1.85;1.55;;;14.70;99.90;;;;;;5155851;27;20082;-80
2022/07/12 01:27:03;;;;;;;1.90;1.70;;;14.20;99.90;;;;;;5158750;27;20043;-79
2022/07/12 01:29:28;;;;;;;3.30;1.63;;;13.90;99.90;;;;;;5158578;27;20038;-79
2022/07/12 01:31:54;;;;;;;2.00;1.70;;;14.00;99.90;;;;;;5158650;27;20175;-80
2022/07/12 01:34:21;;;;;;;2.27;1.50;;;15.10;99.90;;;;;;5140269;27;20053;-80
2022/07/12 01:36:47;;;;;;;3.15;1.63;;;15.20;99.90;;;;;;5158592;27;20616;-79
2022/07/12 01:39:13;;;;;;;1.92;1.65;;;14.10;99.90;;;;;;5158522;27;20070;-79
2022/07/12 01:41:39;;;;;;;1.63;1.40;;;14.20;99.90;;;;;;5158515;27;20143;-79
2022/07/12 01:44:05;;;;;;;1.88;1.40;;;15.00;99.90;;;;;;5158444;27;20125;-79
2022/07/12 01:46:31;;;;;;;2.72;1.60;;;15.10;99.90;;;;;;5140148;27;20069;-80
2022/07/12 01:48:57;;;;;;;2.22;1.40;;;14.90;99.90;;;;;;5158233;27;20474;-78
2022/07/12 01:51:22;;;;;;;2.20;1.40;;;13.80;99.90;;;;;;5158340;27;20459;-80
2022/07/12 01:53:48;;;;;;;2.00;1.60;;;13.40;99.90;;;;;;5140174;27;20043;-78
2022/07/12 01:56:14;;;;;;;2.30;1.37;;;13.30;99.90;;;;;;5140085;27;20042;-78
2022/07/12 01:58:40;;;;;;;1.67;1.35;;;14.50;99.90;;;;;;5139937;27;20586;-79
2022/07/12 02:01:06;;;;;;;2.03;1.52;;;14.30;99.90;;;;;;5158144;27;20390;-79
2022/07/12 02:03:35;;;;;;;2.17;1.53;;;13.90;99.90;;;;;;5158028;27;20041;-80
2022/07/12 02:06:00;;;;;;;3.00;1.52;;;14.30;99.90;;;;;;5158197;27;20126;-79
2022/07/12 02:08:26;;;;;;;3.10;1.53;;;13.80;99.90;;;;;;5139851;27;20129;-80
2022/07/12 02:10:51;;;;;;;1.80;1.50;;;14.30;99.90;;;;;;5158118;27;20042;-79
2022/07/12 02:13:17;;;;;;;1.88;1.40;;;14.70;99.90;;;;;;5139673;27;20138;-79
2022/07/12 02:15:42;;;;;;;1.80;1.52;;;14.50;99.90;;;;;;5157598;27;20069;-80
2022/07/12 02:18:08;;;;;;;3.27;1.40;;;14.00;99.90;;;;;;5157700;27;20083;-80
2022/07/12 02:20:34;;;;;;;1.60;1.38;;;13.40;99.90;;;;;;5157714;27;20046;-79
2022/07/12 02:22:59;;;;;;;2.27;1.80;;;13.60;99.90;;;;;;5139254;27;20061;-80
2022/07/12 02:25:25;;;;;;;2.35;1.30;;;14.10;99.90;;;;;;5157654;27;20053;-79
2022/07/12 02:27:50;;;;;;;1.67;1.35;;;14.00;99.90;;;;;;5157303;27;20050;-80
2022/07/12 02:30:16;;;;;;;1.85;1.58;;;13.90;99.90;;;;;;5139304;27;20038;-80
2022/07/12 02:32:42;;;;;;;4.63;1.30;;;15.00;99.90;;;;;;5157481;27;20087;-79
2022/07/12 02:35:07;;;;;;;3.00;1.60;;;13.30;99.90;;;;;;5139008;27;20047;-80
2022/07/12 02:37:33;;;;;;;2.30;1.70;;;13.40;99.90;;;;;;5138370;27;20035;-80
2022/07/12 02:42:43;;;;;;;2.50;1.50;;;13.30;99.90;;;;;;5157415;27;20047;-80
2022/07/12 02:45:10;;;;;;;1.97;1.47;;;13.50;99.90;;;;;;5157214;27;20095;-79
2022/07/12 02:47:39;;;;;;;;;;;13.20;99.90;;;;;;5157838;27;20508;-79
2022/07/12 02:50:06;;;;;;;1.90;1.40;;;13.10;99.90;;;;;;5157045;27;19922;-80
2022/07/12 02:52:33;;;;;;;2.92;1.50;;;13.10;99.90;;;;;;5157387;27;20040;-79
2022/07/12 02:54:59;;;;;;;2.28;1.50;;;13.40;99.90;;;;;;5138808;27;20039;-80
2022/07/12 02:57:24;;;;;;;3.03;1.43;;;13.00;99.90;;;;;;5138786;27;20087;-78
2022/07/12 02:59:50;;;;;;;1.83;1.40;;;13.00;99.90;;;;;;5138681;27;20064;-80
2022/07/12 03:02:15;;;;;;;2.10;1.50;;;12.80;99.90;;;;;;5156895;27;20133;-78
2022/07/12 03:04:41;;;;;;;2.37;1.70;;;13.00;99.90;;;;;;5157262;27;20043;-80
2022/07/12 03:07:06;;;;;;;1.80;1.40;;;13.80;99.90;;;;;;5138390;27;20538;-79
2022/07/12 03:09:32;;;;;;;2.33;1.48;;;13.80;99.90;;;;;;5156634;27;20058;-80
2022/07/12 03:11:57;;;;;;;2.47;1.60;;;12.30;99.90;;;;;;5138833;27;20046;-80
2022/07/12 03:14:23;;;;;;;2.05;1.48;;;13.00;99.90;;;;;;5138310;27;20095;-80
2022/07/12 03:16:49;;;;;;;2.45;1.55;;;13.00;99.90;;;;;;5139055;27;20034;-80
2022/07/12 03:19:15;;;;;;;2.67;1.60;;;12.80;99.90;;;;;;5156595;27;20499;-81
2022/07/12 03:21:40;;;;;;;3.08;2.30;;;13.80;99.90;;;;;;5156559;27;20313;-80
2022/07/12 03:24:06;;;;;;;2.72;1.70;;;12.80;99.90;;;;;;5156500;27;20050;-80
2022/07/12 03:26:31;;;;;;;3.10;1.90;;;13.00;99.90;;;;;;5156357;27;20051;-79
2022/07/12 03:29:00;;;;;;;3.43;1.93;;;13.20;99.90;;;;;;5156595;27;20042;-80
2022/07/12 03:31:26;;;;;;;2.22;1.83;;;14.10;99.90;;;;;;5156328;27;20046;-79
2022/07/12 03:33:52;;;;;;;2.53;1.70;;;13.10;99.90;;;;;;5156033;27;20054;-79
2022/07/12 03:36:17;;;;;;;1.52;1.35;;;13.30;99.90;;;;;;5156137;27;20125;-79
2022/07/12 03:38:43;;;;;;;2.00;1.60;;;12.80;99.90;;;;;;5137934;27;20065;-80
2022/07/12 03:41:09;;;;;;;2.20;1.40;;;12.90;99.90;;;;;;5138046;27;20043;-79
2022/07/12 03:43:34;;;;;;;2.10;1.50;;;13.10;99.90;;;;;;5156105;27;20046;-79
2022/07/12 03:46:00;;;;;;;2.33;1.60;;;13.30;99.90;;;;;;5156022;27;20127;-80
2022/07/12 03:48:25;;;;;;;1.80;1.40;;;13.90;99.90;;;;;;5136997;27;20078;-80
2022/07/12 03:50:51;;;;;;;1.92;1.52;;;13.90;99.90;;;;;;5155778;27;20121;-80
2022/07/12 03:53:17;;;;;;;2.28;1.65;;;13.00;99.90;;;;;;5137486;27;20046;-79
2022/07/12 03:55:42;;;;;;;2.30;1.50;;;13.50;99.90;;;;;;5155909;27;20475;-79
2022/07/12 03:58:08;;;;;;;1.98;1.42;;;13.80;99.90;;;;;;5155847;27;20049;-80
2022/07/12 04:00:33;;;;;;;2.22;1.50;;;12.60;99.90;;;;;;5155779;27;20042;-80
2022/07/12 04:02:59;;;;;;;3.13;1.60;;;13.00;99.90;;;;;;5137324;27;20042;-80
2022/07/12 04:05:26;;;;;;;2.47;1.67;;;13.70;99.90;;;;;;5155768;27;20136;-80
2022/07/12 04:07:53;;;;;;;3.88;1.90;;;13.10;99.90;;;;;;5155474;27;20046;-79
2022/07/12 04:10:19;;;;;;;2.17;1.60;;;12.50;99.90;;;;;;5155777;27;20060;-79
2022/07/12 04:12:45;;;;;;;2.58;1.85;;;14.30;99.90;;;;;;5155590;27;20054;-79
2022/07/12 04:15:11;;;;;;;2.42;1.63;;;14.30;99.90;;;;;;5155627;27;20123;-79
2022/07/12 04:17:37;;;;;;;3.10;1.73;;;12.90;99.90;;;;;;5137146;27;20091;-78
2022/07/12 04:20:03;;;;;;;2.50;1.87;;;12.40;99.90;;;;;;5155583;27;20042;-79
2022/07/12 04:22:29;;;;;;;2.45;1.90;;;13.10;99.90;;;;;;5137154;27;20038;-78
2022/07/12 04:24:55;;;;;;;2.22;1.70;;;13.10;99.90;;;;;;5155434;27;20071;-78
2022/07/12 04:27:20;;;;;;;2.13;1.48;;;12.80;99.90;;;;;;5155477;27;20046;-79
2022/07/12 04:29:46;;;;;;;3.20;2.00;;;12.80;99.90;;;;;;5136948;27;20082;-80
2022/07/12 04:32:11;;;;;;;3.78;1.98;;;13.10;99.90;;;;;;5155655;27;20435;-79
2022/07/12 04:34:37;;;;;;;2.65;2.10;;;13.00;99.90;;;;;;5155778;27;20039;-80
2022/07/12 04:37:03;;;;;;;4.03;1.80;;;12.90;99.90;;;;;;5155352;27;20080;-79
2022/07/12 04:39:29;;;;;;;4.18;2.38;;;13.20;99.90;;;;;;5155378;27;20171;-79
2022/07/12 04:41:54;;;;;;;3.33;2.75;;;13.20;99.90;;;;;;5155030;27;20061;-80
2022/07/12 04:44:20;;;;;;;6.90;5.28;;;13.80;99.90;;;;;;5155125;27;20050;-80
2022/07/12 04:46:46;;;;;;;7.10;6.15;;;13.70;99.90;;;;;;5155325;27;20050;-80
2022/07/12 04:49:11;;;;;;;6.63;5.22;;;13.30;99.90;;;;;;5155185;27;20378;-80
2022/07/12 04:51:37;;;;;;;10.20;7.18;;;13.00;99.90;;;;;;5155310;27;20066;-81
2022/07/12 04:54:03;;;;;;;11.80;8.37;;;14.00;99.90;;;;;;5136964;27;20043;-80
2022/07/12 04:56:29;;;;;;;9.27;8.33;;;13.90;99.90;;;;;;5155167;27;20095;-80
2022/07/12 04:58:54;;;;;;;10.20;9.10;;;14.20;99.90;;;;;;5155025;27;20444;-81
2022/07/12 05:01:20;;;;;;;12.48;10.48;;;14.20;99.90;;;;;;5159179;27;20034;-80
2022/07/12 05:03:46;;;;;;;11.18;9.27;;;13.40;99.90;;;;;;5159204;27;20482;-79
2022/07/12 05:06:11;;;;;;;13.80;11.07;;;13.10;99.90;;;;;;5159282;27;20490;-79
2022/07/12 05:08:37;;;;;;;12.70;10.87;;;13.40;99.90;;;;;;5140654;27;20126;-81
2022/07/12 05:11:03;;;;;;;30.95;21.60;;;13.60;99.90;;;;;;5140531;27;20066;-80
2022/07/12 05:13:28;;;;;;;36.35;23.98;;;13.80;99.90;;;;;;5159039;27;20046;-80
2022/07/12 05:15:54;;;;;;;35.20;25.52;;;14.10;99.90;;;;;;5140650;27;20616;-81
2022/07/12 05:18:20;;;;;;;38.17;25.10;;;13.50;99.90;;;;;;5140645;27;20043;-79
2022/07/12 05:20:45;;;;;;;34.35;23.55;;;14.30;99.90;;;;;;5159270;27;20086;-80
2022/07/12 05:23:11;;;;;;;31.48;22.13;;;14.90;99.90;;;;;;5159104;27;20098;-80
2022/07/12 05:25:36;;;;;;;32.53;22.05;;;14.80;99.90;;;;;;5140378;27;20530;-78
2022/07/12 05:28:02;;;;;;;28.00;20.40;;;14.20;99.90;;;;;;5158640;27;20156;-79
2022/07/12 05:30:28;;;;;;;25.45;19.52;;;14.30;99.90;;;;;;5158684;27;20372;-79
2022/07/12 05:32:53;;;;;;;23.63;18.47;;;14.80;99.90;;;;;;5158541;27;20064;-80
2022/07/12 05:35:19;;;;;;;22.73;18.10;;;14.90;99.90;;;;;;5158687;27;20065;-78
2022/07/12 05:37:45;;;;;;;19.85;15.15;;;15.00;99.90;;;;;;5140234;27;20534;-80
2022/07/12 05:40:10;;;;;;;18.70;15.50;;;15.80;99.90;;;;;;5140461;27;20125;-79
2022/07/12 05:42:36;;;;;;;19.33;14.38;;;15.60;99.90;;;;;;5158303;27;20091;-79
2022/07/12 05:45:02;;;;;;;17.20;14.17;;;15.80;99.90;;;;;;5139968;27;20054;-79
2022/07/12 05:47:28;;;;;;;18.30;14.13;;;15.90;99.90;;;;;;5158522;27;20051;-79
2022/07/12 05:49:54;;;;;;;13.77;12.13;;;16.10;99.90;;;;;;5158590;27;20038;-80
2022/07/12 05:55:04;;;;;;;11.35;10.15;;;17.70;99.90;;;;;;5158235;27;20047;-82
2022/07/12 05:57:29;;;;;;;12.03;9.50;;;16.90;99.90;;;;;;5122464;27;20490;-81
2022/07/12 05:59:55;;;;;;;10.70;9.63;;;17.20;99.90;;;;;;5139635;27;20085;-80
2022/07/12 06:02:21;;;;;;;8.83;8.00;;;17.80;99.90;;;;;;5158064;27;20379;-80
2022/07/12 06:04:47;;;;;;;8.77;7.97;;;17.90;99.90;;;;;;5139818;27;20050;-81
2022/07/12 06:07:12;;;;;;;8.73;7.83;;;18.30;99.90;;;;;;5158061;27;20356;-80
2022/07/12 06:09:38;;;;;;;9.50;7.30;;;18.20;99.90;;;;;;5157768;27;20058;-80
2022/07/12 06:12:05;;;;;;;9.63;7.65;;;18.60;99.90;;;;;;5156797;27;20115;-80
2022/07/12 06:14:31;;;;;;;7.75;7.03;;;18.80;99.90;;;;;;5157790;27;20100;-80
2022/07/12 06:16:56;;;;;;;8.23;7.43;;;18.70;99.90;;;;;;5139607;27;20039;-81
2022/07/12 06:19:23;;;;;;;7.10;6.40;;;18.90;99.90;;;;;;5157638;27;20422;-81
2022/07/12 06:21:49;;;;;;;6.82;5.97;;;19.30;99.90;;;;;;5157780;27;20047;-83
2022/07/12 06:24:14;;;;;;;7.47;6.78;;;19.70;99.90;;;;;;5139502;27;20087;-82
2022/07/12 06:26:40;;;;;;;7.13;6.27;;;20.10;99.90;;;;;;5139314;27;20038;-80
2022/07/12 06:29:06;;;;;;;7.57;6.03;;;19.30;99.90;;;;;;5157274;27;20039;-81
2022/07/12 06:31:34;;;;;;;6.30;5.70;;;18.50;99.90;;;;;;5157538;27;20091;-81
2022/07/12 06:33:59;;;;;;;7.57;5.72;;;19.00;99.90;;;;;;5139280;27;20513;-79
2022/07/12 06:36:25;;;;;;;6.73;5.63;;;19.60;99.90;;;;;;5156162;27;20043;-79
2022/07/12 06:38:50;;;;;;;5.87;5.37;;;19.30;99.90;;;;;;5138664;27;20061;-80
2022/07/12 06:41:16;;;;;;;6.80;5.73;;;18.80;99.90;;;;;;5121602;27;20056;-79
2022/07/12 06:43:42;;;;;;;6.10;5.50;;;20.00;99.90;;;;;;5156142;27;20111;-80
2022/07/12 06:46:08;;;;;;;5.57;5.07;;;19.50;99.90;;;;;;5155744;27;20042;-81
2022/07/12 06:48:33;;;;;;;5.17;4.67;;;18.60;99.90;;;;;;5156888;27;20041;-79
2022/07/12 06:50:59;;;;;;;5.87;5.27;;;19.20;99.90;;;;;;5157522;27;20046;-80
2022/07/12 06:53:24;;;;;;;6.53;5.27;;;19.20;99.90;;;;;;5157342;27;20046;-84
2022/07/12 06:55:50;;;;;;;6.17;5.33;;;19.20;99.90;;;;;;5121819;27;20046;-90
2022/07/12 06:58:16;;;;;;;5.60;5.00;;;18.00;99.90;;;;;;5121583;27;20054;-88
2022/07/12 07:00:42;;;;;;;7.73;5.87;;;18.90;99.90;;;;;;5121928;27;20130;-87
2022/07/12 07:03:08;;;;;;;6.77;5.80;;;18.70;99.90;;;;;;5138419;27;20440;-87
2022/07/12 07:05:34;;;;;;;5.85;5.25;;;19.60;99.90;;;;;;5121641;27;20050;-87
2022/07/12 07:08:00;;;;;;;5.07;4.57;;;19.20;99.90;;;;;;5121345;27;20038;-87
2022/07/12 07:10:25;;;;;;;5.80;4.73;;;19.20;99.90;;;;;;5121147;27;20094;-87
2022/07/12 07:12:51;;;;;;;5.57;5.03;;;19.10;99.90;;;;;;5121319;27;20051;-87
2022/07/12 07:15:16;;;;;;;5.40;4.90;;;19.80;99.90;;;;;;5138307;27;20039;-84
2022/07/12 07:17:43;;;;;;;4.93;4.53;;;19.50;99.90;;;;;;5135387;27;20038;-91
2022/07/12 07:20:10;;;;;;;6.05;4.47;;;19.60;99.90;;;;;;5117202;27;20407;-91
2022/07/12 07:22:36;;;;;;;4.97;4.57;;;19.80;99.90;;;;;;5135524;27;20043;-83
2022/07/12 07:25:03;;;;;;;5.72;4.78;;;19.50;99.90;;;;;;5117290;27;20429;-78
2022/07/12 07:27:31;;;;;;;6.53;4.32;;;19.90;99.90;;;;;;5135653;27;20051;-91
2022/07/12 07:32:45;;;;;;;4.50;4.10;;;20.00;99.90;;;;;;5135449;27;20047;-90
2022/07/12 07:35:11;;;;;;;5.37;4.87;;;20.10;99.90;;;;;;5126871;27;20052;-83
2022/07/12 07:37:37;;;;;;;5.33;4.83;;;20.10;99.90;;;;;;5128371;27;20047;-82
2022/07/12 07:40:03;;;;;;;7.40;5.47;;;19.30;99.90;;;;;;5137333;27;20133;-82
2022/07/12 07:42:28;;;;;;;5.90;4.67;;;20.30;99.90;;;;;;5155992;27;20469;-82
2022/07/12 07:44:54;;;;;;;6.23;5.00;;;20.00;99.90;;;;;;5155825;27;20039;-85
2022/07/12 07:47:19;;;;;;;5.40;4.90;;;20.30;99.90;;;;;;5115967;27;20125;-77
2022/07/12 07:49:45;;;;;;;6.00;4.67;;;20.00;99.90;;;;;;5155178;27;20039;-79
2022/07/12 07:52:11;;;;;;;5.27;4.77;;;20.70;99.90;;;;;;5137403;27;20043;-78
2022/07/12 07:54:36;;;;;;;4.50;3.93;;;20.40;99.90;;;;;;5137368;27;20478;-78
2022/07/12 07:57:02;;;;;;;5.10;4.33;;;20.70;99.90;;;;;;5155606;27;20099;-80
2022/07/12 07:59:27;;;;;;;4.30;3.90;;;20.90;99.90;;;;;;5155630;27;20093;-80
2022/07/12 08:01:53;;;;;;;5.00;4.40;;;20.80;99.90;;;;;;5155727;27;20042;-78
2022/07/12 08:04:20;;;;;;;5.00;4.50;;;21.40;99.90;;;;;;5155187;27;20039;-80
2022/07/12 08:06:47;;;;;;;4.57;3.75;;;21.30;99.90;;;;;;5155579;27;20050;-79
2022/07/12 08:09:13;;;;;;;4.38;3.70;;;21.40;99.90;;;;;;5154754;27;20050;-79
2022/07/12 08:11:39;;;;;;;4.60;4.10;;;21.50;99.90;;;;;;5155467;27;20398;-79
2022/07/12 08:14:06;;;;;;;4.65;4.25;;;21.80;99.90;;;;;;5155393;27;20046;-78
2022/07/12 08:16:32;;;;;;;;;;;21.90;99.90;;;;;;5155916;27;20045;-77
2022/07/12 08:18:58;;;;;;;4.35;3.95;;;21.90;99.90;;;;;;5155190;27;19919;-79
2022/07/12 08:21:24;;;;;;;7.47;4.70;;;21.90;99.90;;;;;;5155341;27;20397;-79
2022/07/12 08:23:50;;;;;;;3.97;3.60;;;22.00;99.90;;;;;;5136683;27;20039;-81
2022/07/12 08:26:16;;;;;;;5.60;3.60;;;22.10;99.90;;;;;;5155272;27;20056;-83
2022/07/12 08:28:41;;;;;;;5.53;3.73;;;22.10;99.90;;;;;;5155077;27;20042;-84
2022/07/12 08:31:07;;;;;;;5.17;4.33;;;22.40;99.90;;;;;;5114027;28;20051;-83
2022/07/12 08:33:32;;;;;;;4.17;3.37;;;22.30;99.90;;;;;;5143084;27;20046;-82
2022/07/12 08:35:58;;;;;;;4.80;3.77;;;22.00;99.90;;;;;;5121295;28;20047;-82
2022/07/12 08:38:24;;;;;;;3.97;2.87;;;22.40;99.90;;;;;;5125177;28;20047;-84
2022/07/12 08:40:49;;;;;;;4.10;3.27;;;22.60;99.90;;;;;;5099385;28;20508;-85
2022/07/12 08:43:15;;;;;;;3.93;3.23;;;23.10;99.90;;;;;;5123614;28;20047;-83
2022/07/12 08:45:41;;;;;;;4.13;3.13;;;22.90;99.90;;;;;;5136315;27;20038;-83
2022/07/12 08:48:07;;;;;;;6.27;3.33;;;23.00;99.90;;;;;;5154540;27;20121;-83
2022/07/12 08:50:33;;;;;;;4.38;3.13;;;22.20;99.90;;;;;;5149513;27;20372;-83
2022/07/12 08:52:59;;;;;;;5.22;3.50;;;23.20;99.90;;;;;;5129002;28;20054;-84
2022/07/12 08:55:33;;;;;;;3.53;3.10;;;23.20;99.90;;;;;;5115520;28;20039;-83
2022/07/12 08:58:02;;;;;;;3.42;3.05;;;23.30;99.90;;;;;;5099132;28;20043;-83
2022/07/12 09:00:28;;;;;;;2.45;2.13;;;23.40;99.90;;;;;;5115628;28;20475;-84
2022/07/12 09:02:59;;;;;;;3.60;2.58;;;23.50;99.90;;;;;;5134043;27;20047;-83
2022/07/12 09:05:28;;;;;;;3.30;2.88;;;23.50;99.90;;;;;;5145428;27;20047;-84
2022/07/12 09:08:07;;;;;;;2.80;2.05;;;23.50;99.90;;;;;;5115904;28;20039;-83
2022/07/12 09:10:49;;;;;;;3.08;2.15;;;23.60;99.90;;;;;;5115527;28;20092;-83
2022/07/12 09:13:14;;;;;;;4.40;3.28;;;23.80;99.90;;;;;;5141021;27;20054;-84
2022/07/12 09:15:40;;;;;;;3.27;2.97;;;23.90;99.90;;;;;;5115704;27;20394;-83
2022/07/12 09:18:13;;;;;;;5.00;2.70;;;23.90;99.90;;;;;;5136642;27;20039;-83
2022/07/12 09:20:39;;;;;;;6.10;3.33;;;23.90;99.90;;;;;;5154750;27;20046;-84
2022/07/12 09:23:07;;;;;;;7.40;3.10;;;23.90;99.90;;;;;;5119432;27;20049;-84
2022/07/12 09:25:33;;;;;;;4.18;3.10;;;23.50;99.90;;;;;;5154702;27;20491;-84
2022/07/12 09:28:02;;;;;;;5.97;2.60;;;24.00;99.90;;;;;;5154649;27;20043;-83
2022/07/12 09:30:29;;;;;;;3.17;2.70;;;24.10;99.90;;;;;;5136258;27;20046;-84
2022/07/12 09:36:08;;;;;;;3.83;2.58;;;24.20;99.90;;;;;;5136472;27;20050;-84
2022/07/12 09:38:54;;;;;;;4.00;2.05;;;24.30;99.90;;;;;;5154977;27;20058;-84
2022/07/12 09:41:23;;;;;;;3.25;2.10;;;24.40;99.90;;;;;;5154088;27;20043;-84
2022/07/12 09:43:50;;;;;;;3.08;2.50;;;24.50;99.90;;;;;;5136157;27;20047;-85
2022/07/12 09:46:17;;;;;;;3.67;2.72;;;24.70;99.90;;;;;;5136079;27;20133;-85
2022/07/12 09:48:44;;;;;;;3.65;1.92;;;24.70;99.90;;;;;;5152629;27;20079;-83
2022/07/12 09:51:14;;;;;;;4.53;2.13;;;24.80;99.90;;;;;;5130424;27;20394;-83
2022/07/12 09:53:48;;;;;;;4.90;1.70;;;24.90;99.90;;;;;;5139826;27;20042;-85
2022/07/12 09:56:21;;;;;;;7.35;2.60;;;24.90;99.90;;;;;;5139681;27;20042;-84
2022/07/12 09:58:57;;;;;;;3.80;2.03;;;25.00;99.90;;;;;;5109360;27;20035;-85
2022/07/12 10:01:24;;;;;;;2.15;1.58;;;25.10;99.90;;;;;;5136289;27;20083;-84
2022/07/12 10:03:51;;;;;;;2.78;1.60;;;25.30;99.90;;;;;;5102045;27;20043;-84
2022/07/12 10:06:28;;;;;;;2.88;1.50;;;25.40;99.90;;;;;;5118648;27;20068;-84
2022/07/12 10:08:56;;;;;;;4.13;1.58;;;25.30;99.90;;;;;;5137031;27;20108;-86
2022/07/12 10:11:23;;;;;;;2.08;1.30;;;25.30;99.90;;;;;;5124293;27;20100;-85
2022/07/12 10:13:50;;;;;;;2.35;1.20;;;25.20;99.90;;;;;;5135906;27;20043;-85
2022/07/12 10:16:24;;;;;;;2.92;1.20;;;25.20;99.90;;;;;;5136020;27;20406;-85
2022/07/12 10:19:31;;;;;;;3.25;1.10;;;25.20;99.90;;;;;;5135653;27;20495;-84
2022/07/12 10:21:59;;;;;;;1.80;1.30;;;25.30;99.90;;;;;;5132301;27;20046;-81
2022/07/12 10:24:46;;;;;;;2.03;1.70;;;25.30;99.90;;;;;;5136166;27;20092;-82
2022/07/12 10:27:15;;;;;;;1.33;1.00;;;25.40;99.90;;;;;;5121995;27;20044;-82
2022/07/12 10:29:41;;;;;;;3.67;1.35;;;25.60;99.90;;;;;;5114742;28;20471;-82
2022/07/12 10:32:26;;;;;;;2.90;0.93;;;25.60;99.90;;;;;;5098240;28;20139;-82
2022/07/12 10:35:12;;;;;;;1.98;0.90;;;25.60;99.90;;;;;;5115157;28;20386;-83
2022/07/12 10:37:38;;;;;;;1.17;0.80;;;25.80;99.90;;;;;;5114755;28;20090;-80
2022/07/12 10:40:18;;;;;;;1.07;0.60;;;25.80;99.90;;;;;;5115949;28;20444;-87
2022/07/12 10:43:09;;;;;;;0.80;0.70;;;26.00;99.90;;;;;;5097906;28;20082;-79
2022/07/12 10:45:39;;;;;;;2.80;1.00;;;26.10;99.90;;;;;;5115476;28;20047;-75
2022/07/12 10:48:14;;;;;;;2.55;1.02;;;26.20;99.90;;;;;;5115652;28;20044;-78
2022/07/12 10:50:43;;;;;;;1.95;0.90;;;26.20;99.90;;;;;;5115697;28;20566;-79
2022/07/12 10:53:25;;;;;;;1.13;0.60;;;26.20;99.90;;;;;;5115698;28;20059;-76
2022/07/12 10:56:25;;;;;;;1.45;0.80;;;26.20;99.90;;;;;;5115694;28;20048;-77
2022/07/12 10:58:54;;;;;;;2.80;1.00;;;26.20;99.90;;;;;;5094981;28;20056;-80
2022/07/12 11:01:20;;;;;;;1.08;0.80;;;26.20;99.90;;;;;;5115527;28;20570;-79
2022/07/12 11:03:49;;;;;;;1.05;0.82;;;26.30;99.90;;;;;;5115512;28;20048;-78
2022/07/12 11:06:20;;;;;;;1.30;0.80;;;26.50;99.90;;;;;;5115465;28;20043;-79
2022/07/12 11:08:52;;;;;;;1.35;0.80;;;26.60;99.90;;;;;;5115258;28;20081;-81
2022/07/12 11:11:18;;;;;;;2.42;1.20;;;26.70;99.90;;;;;;5137155;27;20055;-80
2022/07/12 11:13:44;;;;;;;2.83;0.90;;;26.80;99.90;;;;;;5145226;27;20557;-81
2022/07/12 11:16:10;;;;;;;1.38;0.80;;;26.90;99.90;;;;;;5143414;27;20118;-80
2022/07/12 11:18:36;;;;;;;1.85;0.95;;;27.00;99.90;;;;;;5145351;27;20041;-80
2022/07/12 11:21:03;;;;;;;0.93;0.50;;;27.10;99.90;;;;;;5144242;27;20054;-80
2022/07/12 11:23:29;;;;;;;;;;;27.20;99.90;;;;;;5150294;27;20502;-83
2022/07/12 11:25:59;;;;;;;1.95;0.70;;;27.20;99.90;;;;;;5135010;27;20276;-85
2022/07/12 11:28:26;;;;;;;1.30;0.63;;;27.30;99.90;;;;;;5102949;27;20047;-80
2022/07/12 11:30:52;;;;;;;1.38;0.80;;;27.40;99.90;;;;;;5142625;27;20047;-80
2022/07/12 11:33:18;;;;;;;2.43;0.60;;;27.40;99.90;;;;;;5155596;27;20034;-80
2022/07/12 11:35:45;;;;;;;2.92;0.85;;;27.40;99.90;;;;;;5156097;27;20494;-80
2022/07/12 11:38:11;;;;;;;3.10;1.00;;;27.60;99.90;;;;;;5155794;27;20076;-80
2022/07/12 11:40:36;;;;;;;2.17;0.70;;;27.50;99.90;;;;;;5137347;27;20046;-78
2022/07/12 11:43:04;;;;;;;1.70;0.80;;;27.60;99.90;;;;;;5155970;27;20039;-78
2022/07/12 11:45:32;;;;;;;2.22;0.60;;;27.40;99.90;;;;;;5155888;27;20099;-80
2022/07/12 11:47:59;;;;;;;1.55;0.73;;;27.40;99.90;;;;;;5155610;27;20074;-79
2022/07/12 11:50:25;;;;;;;0.82;0.65;;;27.50;99.90;;;;;;5155507;27;20375;-79
2022/07/12 11:52:51;;;;;;;2.00;0.90;;;27.40;99.90;;;;;;5155670;27;20083;-79
2022/07/12 11:55:17;;;;;;;1.23;0.70;;;27.60;99.90;;;;;;5155631;27;20067;-77
2022/07/12 11:57:43;;;;;;;3.85;0.88;;;27.50;99.90;;;;;;5155620;27;20403;-80
2022/07/12 12:00:20;;;;;;;2.00;0.83;;;27.40;99.90;;;;;;5155773;27;20053;-78
2022/07/12 12:02:50;;;;;;;2.40;1.02;;;27.40;99.90;;;;;;5155917;27;20379;-77
2022/07/12 12:05:16;;;;;;;2.22;1.15;;;27.50;99.90;;;;;;5155234;27;20506;-78
2022/07/12 12:07:42;;;;;;;3.15;1.00;;;27.50;99.90;;;;;;5155129;27;20035;-77
2022/07/12 12:10:15;;;;;;;2.47;1.10;;;27.60;99.90;;;;;;5153982;27;20054;-78
2022/07/12 12:12:46;;;;;;;1.40;1.00;;;27.50;99.90;;;;;;5155407;27;20050;-77
2022/07/12 12:15:14;;;;;;;1.10;0.70;;;27.50;99.90;;;;;;5155469;27;20054;-78
2022/07/12 12:18:00;;;;;;;2.40;0.60;;;27.60;99.90;;;;;;5155475;27;20130;-81
2022/07/12 12:20:27;;;;;;;1.00;0.60;;;27.70;99.90;;;;;;5137205;27;20054;-79
2022/07/12 12:23:03;;;;;;;2.67;0.80;;;27.90;99.90;;;;;;5155449;27;20042;-79
2022/07/12 12:25:31;;;;;;;0.50;0.50;;;28.10;99.70;;;;;;5155245;27;20041;-81
2022/07/12 12:28:01;;;;;;;0.65;0.52;;;28.30;99.80;;;;;;5155427;27;20099;-76
2022/07/12 12:30:28;;;;;;;2.22;0.93;;;28.30;99.40;;;;;;5155204;27;20031;-78
2022/07/12 12:32:56;;;;;;;2.30;0.60;;;28.40;98.40;;;;;;5154846;27;20062;-81
2022/07/12 12:35:42;;;;;;;1.15;0.70;;;28.40;98.90;;;;;;5137005;27;20094;-79
2022/07/12 12:38:13;;;;;;;1.02;0.70;;;28.60;98.30;;;;;;5154512;27;20058;-76
2022/07/12 12:40:40;;;;;;;1.20;0.73;;;28.80;98.10;;;;;;5137016;27;20042;-76
2022/07/12 12:43:06;;;;;;;;;;;28.90;98.40;;;;;;5155214;27;20091;-81
2022/07/12 12:45:32;;;;;;;5.20;1.05;;;28.90;97.50;;;;;;5155101;27;19926;-80
2022/07/12 12:48:05;;;;;;;2.85;0.85;;;28.90;98.20;;;;;;5155141;27;20039;-79
2022/07/12 12:50:39;;;;;;;1.35;0.70;;;28.80;98.40;;;;;;5155378;27;20382;-78
2022/07/12 12:53:24;;;;;;;2.00;0.80;;;28.80;98.00;;;;;;5154707;27;20462;-80
2022/07/12 12:55:53;;;;;;;2.58;0.85;;;28.80;98.60;;;;;;5154566;27;20484;-81
2022/07/12 12:58:19;;;;;;;2.20;0.82;;;28.80;99.40;;;;;;5154921;27;20053;-79